createdAt,value
2022-10-13T00:00:49.458Z,81.15
2022-10-13T00:06:10.914Z,80.97
2022-10-13T00:11:25.027Z,81.07
2022-10-13T00:16:29.337Z,80.97
2022-10-13T00:21:32.556Z,80.72
2022-10-13T00:26:35.548Z,80.99
2022-10-13T00:31:38.552Z,81.39
2022-10-13T00:36:41.656Z,81.50
2022-10-13T00:41:45.581Z,81.42
2022-10-13T00:46:48.589Z,80.78
2022-10-13T00:51:51.896Z,80.54
2022-10-13T00:56:55.756Z,81.08
2022-10-13T01:02:00.938Z,80.64
2022-10-13T01:07:05.811Z,80.34
2022-10-13T01:12:19.368Z,80.16
2022-10-13T01:17:42.355Z,80.13
2022-10-13T01:23:37.458Z,80.21
2022-10-13T01:29:33.314Z,80.22
2022-10-13T01:35:40.932Z,80.17
2022-10-13T01:41:10.990Z,80.58
2022-10-13T01:46:26.439Z,80.63
2022-10-13T01:51:32.651Z,81.35
2022-10-13T01:56:35.968Z,81.28
2022-10-13T02:02:18.860Z,80.94
2022-10-13T02:07:49.503Z,80.53
2022-10-13T02:13:01.227Z,80.85
2022-10-13T02:18:06.140Z,80.90
2022-10-13T02:23:13.992Z,80.96
2022-10-13T02:28:18.343Z,80.97
2022-10-13T02:33:21.672Z,81.26
2022-10-13T02:38:25.283Z,81.64
2022-10-13T02:43:28.799Z,82.00
2022-10-13T02:48:31.905Z,82.44
2022-10-13T02:53:35.421Z,82.51
2022-10-13T02:58:38.873Z,82.67
2022-10-13T03:03:43.788Z,82.79
2022-10-13T03:08:46.822Z,82.61
2022-10-13T03:13:49.896Z,82.71
2022-10-13T03:18:52.924Z,82.82
2022-10-13T03:23:55.907Z,82.70
2022-10-13T03:28:59.140Z,82.44
2022-10-13T03:34:03.349Z,82.69
2022-10-13T03:39:06.893Z,82.81
2022-10-13T03:44:13.534Z,82.76
2022-10-13T03:49:17.612Z,82.86
2022-10-13T03:54:20.581Z,82.81
2022-10-13T03:59:23.615Z,82.56
2022-10-13T04:04:28.841Z,82.43
2022-10-13T04:09:32.082Z,82.53
2022-10-13T04:14:35.259Z,82.66
2022-10-13T04:19:38.213Z,82.83
2022-10-13T04:24:41.332Z,82.86
2022-10-13T04:29:44.412Z,82.82
2022-10-13T04:34:47.478Z,82.80
2022-10-13T04:39:50.616Z,82.57
2022-10-13T04:44:53.589Z,82.68
2022-10-13T04:49:56.618Z,82.89
2022-10-13T04:54:59.700Z,83.15
2022-10-13T05:00:07.488Z,83.36
2022-10-13T05:05:11.029Z,83.72
2022-10-13T05:10:14.885Z,83.56
2022-10-13T05:15:18.265Z,83.11
2022-10-13T05:20:21.296Z,83.12
2022-10-13T05:25:24.383Z,83.32
2022-10-13T05:30:27.508Z,83.61
2022-10-13T05:35:30.909Z,83.73
2022-10-13T05:40:34.009Z,83.75
2022-10-13T05:45:37.212Z,83.59
2022-10-13T05:50:41.571Z,83.38
2022-10-13T05:55:44.859Z,83.57
2022-10-13T06:00:49.628Z,83.85
2022-10-13T06:05:53.278Z,83.97
2022-10-13T06:10:56.657Z,83.88
2022-10-13T06:15:59.752Z,84.10
2022-10-13T06:21:03.290Z,83.76
2022-10-13T06:26:09.235Z,83.69
2022-10-13T06:31:12.566Z,83.73
2022-10-13T06:36:15.851Z,83.94
2022-10-13T06:41:19.265Z,84.03
2022-10-13T06:46:22.273Z,83.77
2022-10-13T06:51:25.913Z,83.90
2022-10-13T06:56:30.629Z,83.11
2022-10-13T07:01:36.750Z,83.05
2022-10-13T07:06:43.710Z,82.90
2022-10-13T07:11:47.834Z,82.96
2022-10-13T07:16:50.940Z,82.64
2022-10-13T07:21:54.147Z,82.57
2022-10-13T07:26:57.261Z,82.39
2022-10-13T07:32:00.260Z,82.04
2022-10-13T07:37:03.406Z,81.50
2022-10-13T07:42:06.468Z,80.86
2022-10-13T07:47:09.987Z,79.85
2022-10-13T07:52:13.093Z,79.15
2022-10-13T07:57:16.207Z,78.60
2022-10-13T08:02:21.646Z,77.95
2022-10-13T08:07:25.183Z,77.35
2022-10-13T08:12:28.284Z,76.58
2022-10-13T08:17:31.397Z,75.85
2022-10-13T08:22:34.605Z,75.14
2022-10-13T08:27:50.537Z,74.36
2022-10-13T08:32:54.427Z,73.36
2022-10-13T08:37:57.532Z,72.92
2022-10-13T08:43:00.785Z,72.11
2022-10-13T08:48:12.668Z,71.89
2022-10-13T08:53:48.947Z,71.44
2022-10-13T08:58:54.608Z,71.11
2022-10-13T09:04:18.190Z,70.53
2022-10-13T09:09:21.404Z,69.48
2022-10-13T09:14:31.544Z,69.16
2022-10-13T09:19:39.000Z,68.18
2022-10-13T09:24:42.391Z,68.24
2022-10-13T09:29:46.322Z,67.46
2022-10-13T09:34:51.748Z,67.13
2022-10-13T09:40:21.827Z,65.74
2022-10-13T09:45:26.987Z,65.74
2022-10-13T09:50:33.543Z,65.03
2022-10-13T09:55:36.765Z,64.30
2022-10-13T10:00:40.689Z,64.25
2022-10-13T10:05:53.910Z,63.12
2022-10-13T10:11:00.840Z,61.82
2022-10-13T10:16:38.484Z,61.18
2022-10-13T10:21:56.198Z,60.15
2022-10-13T10:27:06.841Z,60.80
2022-10-13T10:32:28.929Z,60.55
2022-10-13T10:38:22.697Z,59.38
2022-10-13T10:43:31.994Z,59.15
2022-10-13T10:48:39.763Z,59.19
2022-10-13T10:56:39.228Z,58.79
2022-10-13T11:02:01.193Z,58.19
2022-10-13T11:07:05.510Z,57.24
2022-10-13T11:12:22.863Z,57.56
2022-10-13T11:17:39.067Z,56.70
2022-10-13T11:22:42.171Z,55.58
2022-10-13T11:27:45.592Z,55.44
2022-10-13T11:32:55.851Z,55.28
2022-10-13T11:38:17.779Z,55.49
2022-10-13T11:43:36.475Z,54.42
2022-10-13T11:49:17.033Z,53.74
2022-10-13T11:54:39.830Z,54.55
2022-10-13T11:59:48.270Z,54.22
2022-10-13T12:05:24.646Z,54.72
2022-10-13T12:10:36.360Z,54.26
2022-10-13T12:15:44.583Z,53.82
2022-10-13T12:20:55.581Z,53.59
2022-10-13T12:26:00.176Z,53.13
2022-10-13T12:31:03.731Z,53.13
2022-10-13T12:36:35.529Z,53.25
2022-10-13T12:41:46.209Z,53.60
2022-10-13T12:46:58.885Z,53.56
2022-10-13T12:52:12.166Z,53.83
2022-10-13T12:57:35.548Z,53.92
2022-10-13T13:02:39.302Z,53.53
2022-10-13T13:07:52.937Z,53.35
2022-10-13T13:12:56.758Z,53.46
2022-10-13T13:18:39.874Z,53.60
2022-10-13T13:23:51.187Z,52.51
2022-10-13T13:28:57.264Z,51.62
2022-10-13T13:34:00.383Z,52.26
2022-10-13T13:39:03.886Z,52.04
2022-10-13T13:44:06.891Z,51.78
2022-10-13T13:49:12.501Z,51.17
2022-10-13T13:54:15.559Z,51.08
2022-10-13T13:59:18.670Z,50.63
2022-10-13T14:04:21.674Z,50.40
2022-10-13T14:09:24.981Z,50.39
2022-10-13T14:14:31.979Z,50.15
2022-10-13T14:19:35.184Z,50.78
2022-10-13T14:24:38.413Z,51.78
2022-10-13T14:29:41.914Z,51.65
2022-10-13T14:34:45.017Z,52.74
2022-10-13T14:39:48.121Z,53.23
2022-10-13T14:44:51.228Z,53.88
2022-10-13T14:49:54.449Z,54.27
2022-10-13T14:54:57.549Z,54.69
2022-10-13T15:00:02.036Z,55.32
2022-10-13T15:05:06.721Z,55.46
2022-10-13T15:10:10.244Z,55.77
2022-10-13T15:15:13.271Z,56.53
2022-10-13T15:20:16.468Z,57.33
2022-10-13T15:25:19.464Z,57.76
2022-10-13T15:30:22.563Z,58.44
2022-10-13T15:35:29.251Z,58.53
2022-10-13T15:40:36.656Z,58.78
2022-10-13T15:45:40.483Z,59.20
2022-10-13T15:50:44.101Z,59.44
2022-10-13T15:55:48.955Z,59.56
2022-10-13T16:00:52.057Z,59.94
2022-10-13T16:05:55.149Z,60.46
2022-10-13T16:10:58.519Z,61.25
2022-10-13T16:16:02.123Z,61.59
2022-10-13T16:21:18.820Z,61.61
2022-10-13T16:26:22.492Z,62.28
2022-10-13T16:31:25.449Z,63.19
2022-10-13T16:36:28.424Z,63.56
2022-10-13T16:41:31.569Z,63.85
2022-10-13T16:46:34.831Z,64.39
2022-10-13T16:51:38.172Z,64.73
2022-10-13T16:56:41.280Z,65.06
2022-10-13T17:01:45.508Z,65.10
2022-10-13T17:06:48.656Z,65.33
2022-10-13T17:11:51.924Z,65.69
2022-10-13T17:16:57.745Z,65.83
2022-10-13T17:22:01.419Z,66.25
2022-10-13T17:27:04.522Z,66.47
2022-10-13T17:32:08.445Z,66.46
2022-10-13T17:37:11.554Z,67.13
2022-10-13T17:42:14.655Z,67.36
2022-10-13T17:47:18.021Z,67.56
2022-10-13T17:52:21.676Z,67.58
2022-10-13T17:57:24.795Z,67.79
2022-10-13T18:02:27.909Z,68.04
2022-10-13T18:07:30.836Z,68.14
2022-10-13T18:12:33.964Z,68.53
2022-10-13T18:17:36.974Z,68.90
2022-10-13T18:22:39.915Z,69.42
2022-10-13T18:27:43.441Z,69.73
2022-10-13T18:32:46.647Z,69.82
2022-10-13T18:37:52.324Z,70.59
2022-10-13T18:42:55.412Z,70.58
2022-10-13T18:47:58.621Z,70.55
2022-10-13T18:53:01.573Z,70.28
2022-10-13T18:58:04.665Z,70.54
2022-10-13T19:03:08.560Z,70.89
2022-10-13T19:08:11.596Z,71.49
2022-10-13T19:13:14.661Z,72.20
2022-10-13T19:18:17.779Z,72.75
2022-10-13T19:23:22.174Z,73.15
2022-10-13T19:28:25.869Z,73.32
2022-10-13T19:33:28.946Z,73.33
2022-10-13T19:38:31.965Z,73.10
2022-10-13T19:43:35.056Z,73.42
2022-10-13T19:48:38.095Z,73.75
2022-10-13T19:53:42.238Z,73.93
2022-10-13T19:58:45.183Z,74.19
2022-10-13T20:03:48.949Z,74.80
2022-10-13T20:08:52.207Z,75.42
2022-10-13T20:13:55.230Z,75.49
2022-10-13T20:19:01.002Z,75.76
2022-10-13T20:24:04.213Z,75.98
2022-10-13T20:29:07.866Z,76.07
2022-10-13T20:34:11.555Z,76.05
2022-10-13T20:39:14.837Z,75.97
2022-10-13T20:44:17.943Z,75.69
2022-10-13T20:49:21.126Z,75.99
2022-10-13T20:54:24.155Z,75.79
2022-10-13T20:59:27.626Z,75.78
2022-10-13T21:04:30.577Z,75.60
2022-10-13T21:09:36.502Z,75.42
2022-10-13T21:14:39.444Z,75.61
2022-10-13T21:19:42.899Z,75.63
2022-10-13T21:24:45.939Z,75.58
2022-10-13T21:29:48.902Z,75.58
2022-10-13T21:34:53.767Z,75.93
2022-10-13T21:39:56.665Z,75.68
2022-10-13T21:44:59.906Z,75.68
2022-10-13T21:50:04.853Z,75.65
2022-10-13T21:55:08.654Z,75.60
2022-10-13T22:00:12.864Z,75.50
2022-10-13T22:05:15.943Z,75.65
2022-10-13T22:10:18.949Z,75.76
2022-10-13T22:15:21.828Z,75.96
2022-10-13T22:20:24.949Z,76.14
2022-10-13T22:25:27.951Z,75.96
2022-10-13T22:30:30.920Z,76.17
2022-10-13T22:35:35.874Z,76.33
2022-10-13T22:40:39.276Z,76.42
2022-10-13T22:45:51.537Z,76.37
2022-10-13T22:50:54.562Z,76.61
2022-10-13T22:55:57.748Z,76.99
2022-10-13T23:01:14.641Z,77.50
2022-10-13T23:06:22.052Z,77.61
2022-10-13T23:11:25.046Z,77.54
2022-10-13T23:16:28.605Z,77.12
2022-10-13T23:21:32.067Z,77.15
2022-10-13T23:26:35.168Z,77.21
2022-10-13T23:31:39.066Z,77.43
2022-10-13T23:36:42.057Z,77.64
2022-10-13T23:41:45.029Z,77.79
2022-10-13T23:46:47.978Z,77.76
2022-10-13T23:51:50.866Z,77.42
2022-10-13T23:56:53.869Z,77.67
